Aeroporto :
LOGIN :

Iscrizione | Disclaimer

   EN    FR    IT 

 










Sommario :    VFR   VFR Marginale   IFR   IFR Intensivo   IFR Molto Intensivo
Visibilità : 
Base nubi : 
>= 8 km
>= 3000ft
5 / 8 km
1000 / 3000 ft
1500m / 5 km
500 / 1000 ft
800 / 1500m
200 / 500 ft
< 800m
< 200 ft
Simboli :   Temporali  Nebbia  Neve Forte  Precipitazioni Forti  Vento > 20 kt
SIGMETs :   Varie  Temporali  Ghiacco  Turbolenza  Onda orograficha  Ceneri Vulcaniche






- Altitudine del aeroporto : 41 ft


LIRE - Pratica di Mare Air Base Pomezia

ULTIMO METAR :
  • 271055Z 21008KT CAVOK 10/01 Q1015 RMK SKC VIS MIN 9999 WIND THR13 22007KT WIND THR31 23007KT BLU

METARs OBSOLETI :
  • 270955Z 35004KT CAVOK 09/M00 Q1015 RMK FEW FEW200 VIS MIN 9999 WIND THR13 07001KT WIND THR31 34005KT BLU
  • 270855Z 03008KT CAVOK 08/02 Q1014 RMK FEW FEW200 VIS MIN 9999 WIND THR13 05008KT WIND THR31 02007KT BLU

TAF TAF LIRE
Valido dal 27 a 09 ore il 27 a 18 ore UTC


270800Z 2709/2718 02010KT CAVOK
BECMG 2712/2714 23012KT



MetMap, La meteo Aeronautica in un colpo d'occhio ! - Copyright ORBIFLY Dicembre 2007 - Disclaimer

ORBIFLY MET'MAP TEAM :

Programmazione e sviluppo : Alexandra Zaïnal
Concezione : Baudouin d'Aumeries
Aiuto per la programmazione : Marc-Olivier Méhu
Supporto tecnico e logistico : Manuel Goepfert
Aiuto per la traduzione : Arnaldo La Scala

Contatto : metmap@orbifly.com




FONTI E CREDITI :

   NOAA